Time;durP1;ratioP1;P1;durP2;ratioP2;P2;SDS_P1;SDS_P2;PMS_P1;PMS_P2;Temp;Humidity;BMP_temperature;BMP_pressure;BME280_temperature;BME280_humidity;BME280_pressure;Samples;Min_cycle;Max_cycle;Signal;HPM_P1;HPM_P2
2021/04/13 00:01:10;;;;;;;7.57;6.67;;;5.00;99.90;;;;;;5004017;28;20495;-72
2021/04/13 00:03:57;;;;;;;7.70;5.90;;;5.00;99.90;;;;;;4994243;28;20205;-70
2021/04/13 00:06:32;;;;;;;6.53;5.93;;;5.00;99.90;;;;;;5002800;28;20524;-72
2021/04/13 00:09:07;;;;;;;8.67;6.73;;;5.00;99.90;;;;;;4999708;28;20424;-73
2021/04/13 00:11:33;;;;;;;9.40;7.30;;;5.00;99.90;;;;;;5001571;28;20482;-70
2021/04/13 00:14:00;;;;;;;7.83;7.10;;;5.00;99.90;;;;;;4998345;28;20878;-73
2021/04/13 00:16:29;;;;;;;7.53;6.47;;;4.90;99.90;;;;;;4990923;28;20522;-71
2021/04/13 00:18:55;;;;;;;7.60;6.80;;;4.80;99.90;;;;;;4998805;28;20439;-71
2021/04/13 00:21:31;;;;;;;9.23;7.07;;;4.80;99.90;;;;;;5000188;28;20542;-71
2021/04/13 00:24:01;;;;;;;9.53;7.07;;;4.70;99.90;;;;;;4996402;28;20475;-70
2021/04/13 00:26:29;;;;;;;8.10;7.10;;;4.60;99.90;;;;;;4990080;28;20509;-71
2021/04/13 00:28:58;;;;;;;8.10;6.93;;;4.50;99.90;;;;;;5000312;28;20970;-70
2021/04/13 00:34:12;;;;;;;9.40;7.17;;;4.50;99.90;;;;;;4998119;28;20452;-74
2021/04/13 00:36:38;;;;;;;10.30;7.17;;;4.50;99.90;;;;;;4998897;28;20452;-72
2021/04/13 00:39:30;;;;;;;7.50;6.10;;;4.40;99.90;;;;;;5002083;28;20440;-71
2021/04/13 00:42:02;;;;;;;9.80;7.00;;;4.40;99.90;;;;;;5000249;28;20452;-71
2021/04/13 00:44:32;;;;;;;7.70;6.70;;;4.40;99.90;;;;;;4998024;28;20443;-70
2021/04/13 00:47:04;;;;;;;9.77;7.03;;;4.30;99.90;;;;;;4993134;28;20452;-71
2021/04/13 00:49:32;;;;;;;7.73;6.93;;;4.30;99.90;;;;;;4999135;28;21053;-70
2021/04/13 00:52:10;;;;;;;9.80;6.50;;;4.30;99.90;;;;;;4998722;28;20452;-72
2021/04/13 00:54:56;;;;;;;7.30;6.60;;;4.30;99.90;;;;;;4996370;28;20970;-71
2021/04/13 00:57:43;;;;;;;8.30;7.27;;;4.30;99.90;;;;;;4997898;28;20428;-71
2021/04/13 01:00:17;;;;;;;8.70;6.60;;;4.30;99.90;;;;;;4994505;28;20553;-71
2021/04/13 01:02:43;;;;;;;8.07;7.07;;;4.30;99.90;;;;;;4996495;28;20474;-70
2021/04/13 01:05:17;;;;;;;8.03;7.20;;;4.30;99.90;;;;;;5004237;28;20443;-70
2021/04/13 01:07:52;;;;;;;8.73;7.83;;;4.30;99.90;;;;;;5003660;28;20439;-73
2021/04/13 01:10:30;;;;;;;7.23;6.27;;;4.30;99.90;;;;;;5000211;28;20451;-71
2021/04/13 01:13:17;;;;;;;7.23;6.47;;;4.30;99.90;;;;;;5000875;28;20463;-71
2021/04/13 01:15:46;;;;;;;9.00;6.40;;;4.20;99.90;;;;;;4993495;28;20467;-71
2021/04/13 01:18:34;;;;;;;23.43;6.77;;;4.20;99.90;;;;;;5003859;28;20812;-71
2021/04/13 01:21:17;;;;;;;8.67;6.83;;;4.20;99.90;;;;;;5004637;28;20467;-71
2021/04/13 01:23:56;;;;;;;7.10;6.40;;;4.30;99.90;;;;;;5000641;28;20542;-72
2021/04/13 01:26:22;;;;;;;7.23;6.53;;;4.30;99.90;;;;;;5000991;28;20428;-72
2021/04/13 01:28:51;;;;;;;7.20;6.33;;;4.20;99.90;;;;;;4987311;28;20440;-71
2021/04/13 01:34:39;;;;;;;6.83;6.20;;;4.30;99.90;;;;;;4998193;28;20573;-71
2021/04/13 01:37:42;;;;;;;7.60;6.80;;;4.30;99.90;;;;;;5001538;28;20511;-71
2021/04/13 01:40:19;;;;;;;7.50;6.27;;;4.20;99.90;;;;;;4995536;28;20522;-70
2021/04/13 01:42:48;;;;;;;7.87;7.07;;;4.20;99.90;;;;;;4997313;28;20538;-73
2021/04/13 01:45:18;;;;;;;9.17;6.30;;;4.10;99.90;;;;;;5005393;28;20870;-72
2021/04/13 01:47:46;;;;;;;8.20;6.00;;;4.10;99.90;;;;;;5001791;28;20428;-72
2021/04/13 01:50:23;;;;;;;7.60;6.73;;;4.10;99.90;;;;;;5003513;28;20467;-72
2021/04/13 01:52:51;;;;;;;9.53;6.60;;;4.10;99.90;;;;;;4991354;28;20844;-70
2021/04/13 01:55:32;;;;;;;6.57;5.97;;;4.10;99.90;;;;;;5001626;28;20435;-71
2021/04/13 01:58:16;;;;;;;7.27;6.20;;;4.20;99.90;;;;;;5000965;28;20492;-70
2021/04/13 02:00:47;;;;;;;7.67;6.20;;;4.20;99.90;;;;;;5003691;28;20953;-71
2021/04/13 02:03:24;;;;;;;6.93;6.10;;;4.20;99.90;;;;;;5004671;28;20495;-72
2021/04/13 02:05:55;;;;;;;7.00;6.00;;;4.20;99.90;;;;;;5006264;28;20522;-72
2021/04/13 02:08:38;;;;;;;7.70;6.27;;;4.20;99.90;;;;;;4985254;28;20514;-72
2021/04/13 02:11:12;;;;;;;6.07;5.53;;;4.20;99.90;;;;;;5004819;28;20424;-71
2021/04/13 02:13:43;;;;;;;7.40;6.53;;;4.20;99.90;;;;;;4999451;28;20533;-71
2021/04/13 02:16:19;;;;;;;6.80;6.10;;;4.20;99.90;;;;;;5003471;28;20459;-70
2021/04/13 02:18:48;;;;;;;8.27;6.40;;;4.30;99.90;;;;;;4999352;28;20923;-73
2021/04/13 02:21:17;;;;;;;8.47;5.83;;;4.30;99.90;;;;;;4991286;28;20447;-72
2021/04/13 02:23:51;;;;;;;7.80;6.60;;;4.30;99.90;;;;;;4997822;28;20512;-70
2021/04/13 02:26:20;;;;;;;6.90;6.20;;;4.30;99.90;;;;;;4999256;28;20443;-71
2021/04/13 02:28:48;;;;;;;7.63;6.63;;;4.30;99.90;;;;;;5003150;28;20511;-71
2021/04/13 02:31:36;;;;;;;8.03;6.47;;;4.30;99.90;;;;;;5003655;28;20440;-72
2021/04/13 02:34:09;;;;;;;6.90;6.00;;;4.40;99.90;;;;;;4990601;28;20461;-70
2021/04/13 02:36:34;;;;;;;8.17;6.50;;;4.40;99.90;;;;;;5002150;28;20435;-72
2021/04/13 02:39:01;;;;;;;7.80;6.20;;;4.40;99.90;;;;;;5006240;28;20436;-70
2021/04/13 02:41:34;;;;;;;6.60;6.00;;;4.40;99.90;;;;;;5004657;28;20424;-71
2021/04/13 02:44:07;;;;;;;11.70;6.47;;;4.40;99.90;;;;;;4997627;28;20465;-70
2021/04/13 02:46:38;;;;;;;8.40;6.30;;;4.50;99.90;;;;;;4986365;28;20548;-72
2021/04/13 02:49:08;;;;;;;8.53;6.80;;;4.50;99.90;;;;;;4998265;28;20962;-71
2021/04/13 02:51:36;;;;;;;9.17;6.40;;;4.40;99.90;;;;;;4999805;28;20452;-72
2021/04/13 02:54:11;;;;;;;6.80;6.10;;;4.50;99.90;;;;;;5000005;28;20551;-71
2021/04/13 02:56:42;;;;;;;6.93;6.20;;;4.50;99.90;;;;;;4999470;28;21009;-71
2021/04/13 02:59:13;;;;;;;6.57;5.97;;;4.50;99.90;;;;;;5003595;28;20432;-72
2021/04/13 03:01:55;;;;;;;8.10;5.83;;;4.50;99.90;;;;;;4989821;28;20476;-73
2021/04/13 03:04:21;;;;;;;8.53;6.23;;;4.50;99.90;;;;;;5002856;28;20451;-71
2021/04/13 03:06:51;;;;;;;6.77;6.17;;;4.50;99.90;;;;;;5003482;28;21100;-72
2021/04/13 03:09:19;;;;;;;7.30;6.00;;;4.40;99.90;;;;;;4998362;28;20468;-72
2021/04/13 03:11:48;;;;;;;6.70;6.00;;;4.40;99.90;;;;;;4996305;28;20555;-72
2021/04/13 03:14:17;;;;;;;8.73;6.30;;;4.40;99.90;;;;;;4997417;28;20798;-72
2021/04/13 03:16:45;;;;;;;8.27;6.07;;;4.40;99.90;;;;;;4997191;28;20537;-72
2021/04/13 03:19:14;;;;;;;7.33;5.90;;;4.40;99.90;;;;;;4996483;28;20844;-70
2021/04/13 03:21:42;;;;;;;7.43;6.07;;;4.30;99.90;;;;;;5001202;28;20534;-72
2021/04/13 03:24:11;;;;;;;8.37;5.70;;;4.30;99.90;;;;;;4996725;28;20455;-73
2021/04/13 03:26:49;;;;;;;6.70;6.00;;;4.30;99.90;;;;;;4995313;28;20443;-71
2021/04/13 03:29:25;;;;;;;6.43;5.70;;;4.30;99.90;;;;;;5000923;28;20435;-71
2021/04/13 03:31:53;;;;;;;7.73;5.97;;;4.20;99.90;;;;;;5004174;28;20837;-72
2021/04/13 03:34:21;;;;;;;11.20;6.90;;;4.20;99.90;;;;;;5000200;28;20555;-71
2021/04/13 03:36:47;;;;;;;6.63;5.93;;;4.30;99.90;;;;;;5006093;28;20443;-71
2021/04/13 03:39:23;;;;;;;6.60;5.87;;;4.30;99.90;;;;;;4987865;28;20468;-72
2021/04/13 03:41:50;;;;;;;7.00;5.60;;;4.30;99.90;;;;;;5007773;28;20860;-72
2021/04/13 03:44:17;;;;;;;5.77;5.27;;;4.30;99.90;;;;;;5002899;28;20528;-71
2021/04/13 03:46:44;;;;;;;7.60;6.00;;;4.40;99.90;;;;;;5008287;28;20527;-72
2021/04/13 03:49:25;;;;;;;5.93;5.33;;;4.40;99.90;;;;;;5006172;28;20824;-71
2021/04/13 03:52:00;;;;;;;6.97;5.53;;;4.40;99.90;;;;;;4993359;28;20456;-73
2021/04/13 03:54:31;;;;;;;9.80;6.00;;;4.40;99.90;;;;;;4998473;28;20451;-73
2021/04/13 03:56:59;;;;;;;8.43;6.60;;;4.40;99.90;;;;;;5002962;28;20446;-70
2021/04/13 03:59:27;;;;;;;7.50;6.70;;;4.50;99.90;;;;;;5001746;28;20432;-70
2021/04/13 04:01:53;;;;;;;6.50;5.90;;;4.50;99.90;;;;;;5002076;28;20468;-70
2021/04/13 04:04:28;;;;;;;6.90;6.20;;;4.50;99.90;;;;;;4998182;28;20455;-71
2021/04/13 04:06:58;;;;;;;10.03;6.40;;;4.50;99.90;;;;;;4996669;28;20330;-72
2021/04/13 04:09:29;;;;;;;8.60;6.47;;;4.60;99.90;;;;;;5011431;28;20420;-72
2021/04/13 04:11:58;;;;;;;7.17;6.47;;;4.60;99.90;;;;;;5003829;28;21564;-71
2021/04/13 04:14:28;;;;;;;7.80;7.00;;;4.60;99.90;;;;;;4993711;28;20460;-74
2021/04/13 04:17:15;;;;;;;7.37;6.77;;;4.50;99.90;;;;;;5009272;28;20420;-71
2021/04/13 04:19:52;;;;;;;6.90;6.20;;;4.50;99.90;;;;;;5013883;28;20495;-71
2021/04/13 04:22:20;;;;;;;9.93;6.70;;;4.60;99.90;;;;;;5011193;28;20815;-71
2021/04/13 04:24:46;;;;;;;7.80;7.10;;;4.60;99.90;;;;;;5008197;28;20773;-71
2021/04/13 04:27:26;;;;;;;7.33;6.47;;;4.70;99.90;;;;;;4995992;28;20446;-70
2021/04/13 04:30:24;;;;;;;9.87;7.10;;;4.60;99.90;;;;;;5001532;28;20181;-71
2021/04/13 04:32:51;;;;;;;7.20;6.33;;;4.60;99.90;;;;;;5005254;28;20944;-72
2021/04/13 04:35:40;;;;;;;7.30;6.60;;;4.60;99.90;;;;;;5002024;28;20456;-69
2021/04/13 04:38:14;;;;;;;11.63;7.13;;;4.60;99.90;;;;;;4995586;28;20480;-70
2021/04/13 04:40:53;;;;;;;7.87;6.77;;;4.60;99.90;;;;;;5003222;28;20482;-71
2021/04/13 04:43:37;;;;;;;10.57;8.37;;;4.50;99.90;;;;;;4993661;28;20475;-69
2021/04/13 04:46:03;;;;;;;7.57;6.80;;;4.40;99.90;;;;;;5002484;28;20423;-72
2021/04/13 04:48:39;;;;;;;7.70;6.53;;;4.40;99.90;;;;;;4999507;28;20931;-69
2021/04/13 04:51:11;;;;;;;7.23;6.53;;;4.30;99.90;;;;;;4993338;28;20203;-71
2021/04/13 04:53:38;;;;;;;11.83;6.60;;;4.30;99.90;;;;;;5000527;28;20531;-71
2021/04/13 04:56:07;;;;;;;8.23;7.43;;;4.30;99.90;;;;;;5006549;28;20507;-70
2021/04/13 04:58:34;;;;;;;7.30;6.60;;;4.30;99.90;;;;;;5007674;28;20491;-72
2021/04/13 05:01:00;;;;;;;6.80;6.23;;;4.30;99.90;;;;;;5000908;28;20474;-73
2021/04/13 05:03:27;;;;;;;10.43;7.47;;;4.30;99.90;;;;;;4998430;28;20882;-72
2021/04/13 05:05:53;;;;;;;9.90;6.87;;;4.30;99.90;;;;;;5007908;28;20416;-71
2021/04/13 05:08:20;;;;;;;14.03;9.63;;;4.30;99.90;;;;;;5003136;28;20443;-71
2021/04/13 05:10:46;;;;;;;11.73;8.87;;;4.30;99.90;;;;;;5007464;28;20420;-72
2021/04/13 05:13:12;;;;;;;11.10;8.23;;;4.30;99.90;;;;;;5005041;28;20510;-71
2021/04/13 05:15:38;;;;;;;14.60;8.40;;;4.30;99.90;;;;;;4997213;28;20452;-71
2021/04/13 05:18:04;;;;;;;9.60;7.90;;;4.30;99.90;;;;;;5007738;28;20193;-70
2021/04/13 05:20:30;;;;;;;13.30;9.27;;;4.20;99.90;;;;;;5008794;28;20189;-71
2021/04/13 05:22:56;;;;;;;10.57;8.47;;;4.30;99.90;;;;;;5006756;28;20468;-72
2021/04/13 05:25:22;;;;;;;10.30;7.83;;;4.30;99.90;;;;;;5007585;28;20434;-71
2021/04/13 05:27:47;;;;;;;13.20;8.10;;;4.30;99.90;;;;;;5003622;28;20274;-68
2021/04/13 05:30:14;;;;;;;13.77;9.00;;;4.40;99.90;;;;;;4996760;28;20443;-72
2021/04/13 05:32:40;;;;;;;13.40;8.40;;;4.40;99.90;;;;;;5006967;28;20186;-72
2021/04/13 05:35:07;;;;;;;18.53;10.40;;;4.40;99.90;;;;;;5000718;28;20451;-72
2021/04/13 05:37:33;;;;;;;19.70;8.20;;;4.50;99.90;;;;;;5004306;28;20848;-71
2021/04/13 05:40:00;;;;;;;14.10;8.57;;;4.50;99.90;;;;;;5008704;28;20427;-73
2021/04/13 05:42:29;;;;;;;17.90;9.93;;;4.50;99.90;;;;;;4995989;28;20871;-71
2021/04/13 05:44:56;;;;;;;14.00;9.40;;;4.60;99.90;;;;;;5005044;28;20436;-71
2021/04/13 05:47:24;;;;;;;27.10;8.83;;;4.60;99.90;;;;;;5012112;28;20449;-71
2021/04/13 05:49:49;;;;;;;18.00;9.33;;;4.60;99.90;;;;;;5010727;28;20424;-72
2021/04/13 05:52:15;;;;;;;18.33;8.37;;;4.70;99.90;;;;;;5007895;28;20450;-70
2021/04/13 05:54:41;;;;;;;16.73;11.03;;;4.70;99.90;;;;;;5001880;28;20267;-73
2021/04/13 05:57:10;;;;;;;20.73;8.93;;;4.80;99.90;;;;;;5013052;28;20208;-72
2021/04/13 05:59:36;;;;;;;13.47;9.27;;;4.80;99.90;;;;;;5009008;28;20186;-71
2021/04/13 06:02:04;;;;;;;14.27;9.27;;;4.90;99.90;;;;;;4991596;28;20467;-72
2021/04/13 06:04:30;;;;;;;14.83;9.53;;;4.90;99.90;;;;;;5011353;28;20440;-71
2021/04/13 06:06:56;;;;;;;13.60;8.83;;;4.90;99.90;;;;;;4996081;28;20448;-71
2021/04/13 06:09:22;;;;;;;12.03;9.07;;;5.00;99.90;;;;;;5014003;28;20780;-72
2021/04/13 06:11:47;;;;;;;13.30;8.40;;;5.10;99.90;;;;;;5013500;28;20518;-69
2021/04/13 06:14:14;;;;;;;22.43;8.70;;;5.10;99.90;;;;;;5003264;28;20278;-72
2021/04/13 06:16:42;;;;;;;14.93;9.00;;;5.10;99.90;;;;;;5009075;28;20865;-70
2021/04/13 06:19:08;;;;;;;16.50;9.37;;;5.20;99.90;;;;;;4999623;28;20468;-72
2021/04/13 06:21:35;;;;;;;13.23;9.90;;;5.20;99.90;;;;;;5005484;28;20482;-72
2021/04/13 06:24:01;;;;;;;15.97;10.30;;;5.20;99.90;;;;;;5005814;28;20201;-72
2021/04/13 06:26:27;;;;;;;26.27;11.40;;;5.30;99.90;;;;;;5001829;28;21142;-73
2021/04/13 06:28:53;;;;;;;16.83;10.90;;;5.30;99.90;;;;;;5008557;28;20428;-73
2021/04/13 06:31:19;;;;;;;14.40;9.70;;;5.40;99.90;;;;;;5009566;28;20435;-71
2021/04/13 06:33:44;;;;;;;14.10;10.57;;;5.40;99.90;;;;;;5000278;28;20216;-70
2021/04/13 06:36:16;;;;;;;20.93;12.37;;;5.40;99.90;;;;;;4995937;28;20442;-72
2021/04/13 06:38:42;;;;;;;20.20;11.70;;;5.40;99.90;;;;;;4991096;28;20186;-71
2021/04/13 06:41:36;;;;;;;17.50;11.63;;;5.50;99.90;;;;;;4999027;28;20428;-71
2021/04/13 06:44:41;;;;;;;15.87;11.60;;;5.50;99.90;;;;;;5000320;28;20444;-70
2021/04/13 06:47:15;;;;;;;14.13;10.87;;;5.60;99.90;;;;;;4993753;28;20840;-70
2021/04/13 06:50:03;;;;;;;19.60;11.67;;;5.80;99.90;;;;;;5002492;28;20438;-70
2021/04/13 06:52:56;;;;;;;19.10;12.90;;;5.80;99.90;;;;;;4998901;28;20541;-72
2021/04/13 06:55:53;;;;;;;20.03;12.97;;;5.90;99.90;;;;;;5005474;28;20423;-70
2021/04/13 06:58:34;;;;;;;17.20;12.30;;;6.00;99.90;;;;;;5004092;28;20429;-70
2021/04/13 07:01:30;;;;;;;19.43;13.83;;;6.00;99.90;;;;;;4977558;28;20471;-72
2021/04/13 07:04:11;;;;;;;15.70;12.70;;;6.00;99.90;;;;;;5001895;28;20468;-71
2021/04/13 07:06:56;;;;;;;18.83;12.83;;;6.10;99.90;;;;;;4999632;28;20558;-72
2021/04/13 07:09:24;;;;;;;21.43;12.27;;;6.30;99.90;;;;;;4998436;28;20440;-71
2021/04/13 07:12:25;;;;;;;18.10;13.63;;;6.30;99.90;;;;;;4990532;28;20447;-73
2021/04/13 07:14:58;;;;;;;17.27;12.73;;;6.40;99.90;;;;;;5000766;28;20475;-73
2021/04/13 07:18:01;;;;;;;16.93;13.53;;;6.50;99.90;;;;;;4996880;28;20978;-71
2021/04/13 07:20:40;;;;;;;20.90;13.87;;;6.60;99.90;;;;;;5003334;28;20438;-72
2021/04/13 07:23:21;;;;;;;18.37;12.37;;;6.70;99.90;;;;;;4996142;28;21021;-71
2021/04/13 07:25:54;;;;;;;18.70;12.43;;;6.80;99.90;;;;;;4999209;28;20436;-70
2021/04/13 07:28:36;;;;;;;17.13;13.20;;;6.80;99.90;;;;;;4997622;28;20424;-71
2021/04/13 07:31:08;;;;;;;16.83;13.03;;;6.90;99.90;;;;;;4999569;28;20424;-70
2021/04/13 07:33:34;;;;;;;20.60;12.97;;;6.90;99.90;;;;;;4995388;28;21154;-72
2021/04/13 07:36:14;;;;;;;16.50;11.93;;;7.00;99.90;;;;;;4987266;28;20538;-70
2021/04/13 07:38:46;;;;;;;17.37;12.63;;;7.10;99.90;;;;;;4996375;28;20588;-71
2021/04/13 07:41:41;;;;;;;16.53;12.50;;;7.20;99.90;;;;;;4991856;28;21125;-70
2021/04/13 07:44:26;;;;;;;16.17;12.90;;;7.30;99.90;;;;;;4974298;28;21022;-71
2021/04/13 07:47:11;;;;;;;24.10;12.87;;;7.30;99.90;;;;;;4995992;28;21936;-73
2021/04/13 07:49:47;;;;;;;15.20;13.47;;;7.50;99.90;;;;;;4992528;28;20447;-70
2021/04/13 07:52:44;;;;;;;18.67;13.00;;;7.60;99.90;;;;;;4999012;28;20429;-71
2021/04/13 07:55:28;;;;;;;16.37;12.83;;;7.70;99.90;;;;;;4995728;28;20455;-73
2021/04/13 07:58:11;;;;;;;16.97;12.40;;;7.80;99.90;;;;;;4995453;28;20435;-71
2021/04/13 08:00:40;;;;;;;16.37;13.23;;;7.80;99.90;;;;;;4990223;28;20470;-72
2021/04/13 08:03:31;;;;;;;17.20;13.00;;;8.10;99.90;;;;;;4995576;28;20479;-71
2021/04/13 08:06:00;;;;;;;15.97;12.47;;;8.30;99.90;;;;;;4988783;28;20482;-73
2021/04/13 08:08:43;;;;;;;17.80;13.13;;;8.50;99.90;;;;;;4997964;28;20997;-69
2021/04/13 08:11:16;;;;;;;21.33;14.57;;;8.40;99.90;;;;;;4994892;28;20971;-70
2021/04/13 08:14:03;;;;;;;17.77;13.67;;;8.40;99.90;;;;;;4984160;28;21073;-71
2021/04/13 08:16:38;;;;;;;17.80;12.20;;;8.40;99.90;;;;;;4995065;28;20459;-71
2021/04/13 08:19:23;;;;;;;16.40;12.97;;;8.50;99.90;;;;;;5003909;28;20503;-73
2021/04/13 08:22:19;;;;;;;17.30;11.80;;;8.60;99.90;;;;;;4992217;28;20472;-71
2021/04/13 08:24:54;;;;;;;16.97;14.47;;;8.70;99.90;;;;;;4982704;28;20574;-69
2021/04/13 08:28:21;;;;;;;21.13;16.20;;;8.80;99.90;;;;;;4984703;28;20470;-70
2021/04/13 08:34:06;;;;;;;13.90;11.10;;;9.10;99.90;;;;;;4944963;28;20434;-71
2021/04/13 08:36:38;;;;;;;15.10;11.17;;;9.20;99.90;;;;;;5002506;28;20431;-71
2021/04/13 08:39:04;;;;;;;14.07;11.40;;;9.50;99.90;;;;;;4988300;28;20547;-74
2021/04/13 08:41:42;;;;;;;18.83;12.17;;;9.70;99.90;;;;;;4995834;28;20435;-72
2021/04/13 08:44:35;;;;;;;16.90;12.60;;;9.90;99.90;;;;;;4994038;28;20201;-70
2021/04/13 08:47:29;;;;;;;18.23;11.70;;;10.20;99.90;;;;;;4995508;28;20522;-69
2021/04/13 08:50:00;;;;;;;13.90;10.73;;;10.00;99.90;;;;;;4985003;28;20455;-71
2021/04/13 08:52:42;;;;;;;12.83;11.23;;;10.20;99.90;;;;;;4993010;28;20519;-71
2021/04/13 08:55:19;;;;;;;14.63;11.80;;;10.10;99.90;;;;;;4997723;28;21110;-72
2021/04/13 08:57:59;;;;;;;14.17;11.23;;;10.40;99.90;;;;;;4998714;28;21255;-72
2021/04/13 09:00:38;;;;;;;14.43;12.13;;;10.70;99.90;;;;;;4996458;28;20456;-72
2021/04/13 09:03:09;;;;;;;12.10;10.90;;;12.30;99.90;;;;;;4989893;28;21178;-70
2021/04/13 09:05:38;;;;;;;13.27;11.90;;;13.30;99.90;;;;;;4989808;28;20432;-72
2021/04/13 09:08:06;;;;;;;15.40;11.73;;;12.50;97.10;;;;;;4991164;28;20460;-71
2021/04/13 09:10:40;;;;;;;14.03;12.53;;;11.70;95.00;;;;;;4992342;28;20435;-71
2021/04/13 09:13:21;;;;;;;13.10;11.57;;;11.10;96.60;;;;;;4994832;28;20428;-71
2021/04/13 09:16:11;;;;;;;13.23;11.57;;;10.90;97.70;;;;;;4978824;28;21438;-69
2021/04/13 09:18:46;;;;;;;14.77;12.00;;;10.60;98.50;;;;;;4996460;28;21016;-70
2021/04/13 09:21:21;;;;;;;13.00;11.03;;;10.30;97.80;;;;;;4995778;28;20435;-71
2021/04/13 09:24:09;;;;;;;11.33;10.23;;;10.20;97.80;;;;;;4996708;28;21010;-72
2021/04/13 09:27:19;;;;;;;12.50;10.70;;;10.10;96.80;;;;;;4991969;28;20972;-72
2021/04/13 09:29:50;;;;;;;15.20;11.40;;;10.10;96.30;;;;;;4937143;28;20462;-70
2021/04/13 09:32:25;;;;;;;13.53;11.20;;;9.90;96.20;;;;;;4997095;28;20438;-72
2021/04/13 09:35:14;;;;;;;19.70;11.27;;;9.90;97.00;;;;;;4996090;28;21211;-71
2021/04/13 09:38:08;;;;;;;12.50;10.70;;;10.90;97.50;;;;;;4990531;28;21018;-72
2021/04/13 09:41:06;;;;;;;11.20;10.10;;;12.10;95.00;;;;;;5003662;28;20412;-69
2021/04/13 09:44:02;;;;;;;11.90;10.63;;;12.10;92.40;;;;;;4999880;28;20496;-72
2021/04/13 09:46:49;;;;;;;12.57;9.30;;;13.20;90.90;;;;;;5000012;28;20559;-71
2021/04/13 09:49:37;;;;;;;10.80;9.70;;;12.80;85.50;;;;;;4999416;28;21003;-71
2021/04/13 09:52:50;;;;;;;10.33;9.30;;;12.30;86.70;;;;;;5004449;28;20558;-72
2021/04/13 09:55:39;;;;;;;10.37;9.37;;;11.70;85.50;;;;;;4946463;28;20461;-71
2021/04/13 09:58:23;;;;;;;9.13;8.33;;;14.60;82.00;;;;;;4975517;28;20496;-73
2021/04/13 10:00:53;;;;;;;10.13;9.13;;;17.30;71.90;;;;;;4997687;28;20444;-71
2021/04/13 10:03:42;;;;;;;9.00;8.17;;;19.20;59.70;;;;;;4987018;28;20502;-71
2021/04/13 10:06:13;;;;;;;9.20;8.37;;;20.40;52.50;;;;;;5002254;28;20579;-72
2021/04/13 10:08:47;;;;;;;9.60;8.67;;;20.20;46.30;;;;;;4997875;28;20428;-72
2021/04/13 10:11:40;;;;;;;9.03;8.13;;;19.10;44.90;;;;;;4999075;28;20894;-72
2021/04/13 10:14:41;;;;;;;9.27;8.40;;;17.90;46.00;;;;;;4995788;28;21266;-73
2021/04/13 10:17:35;;;;;;;9.03;8.13;;;16.50;45.90;;;;;;4986469;28;20556;-72
2021/04/13 10:20:25;;;;;;;8.07;7.27;;;15.30;45.90;;;;;;4993636;28;20481;-70
2021/04/13 10:23:06;;;;;;;8.90;8.10;;;14.30;47.20;;;;;;4995352;28;20467;-72
2021/04/13 10:26:07;;;;;;;8.90;8.20;;;13.70;49.30;;;;;;4991860;28;20472;-72
2021/04/13 10:28:56;;;;;;;8.47;7.70;;;13.90;50.80;;;;;;4918063;28;20471;-71
2021/04/13 10:31:46;;;;;;;8.17;7.47;;;15.10;49.50;;;;;;4992061;28;21159;-71
2021/04/13 10:34:50;;;;;;;9.20;8.30;;;16.70;48.00;;;;;;4989900;28;21294;-70
2021/04/13 10:37:40;;;;;;;10.03;8.50;;;18.20;47.10;;;;;;4987767;28;20448;-70
2021/04/13 10:40:28;;;;;;;8.73;7.83;;;17.80;44.70;;;;;;4975670;28;20466;-71
2021/04/13 10:43:08;;;;;;;10.50;7.90;;;16.40;44.30;;;;;;4990242;28;20459;-72
2021/04/13 10:46:02;;;;;;;8.03;7.33;;;15.40;44.30;;;;;;4990110;28;20441;-71
2021/04/13 10:48:46;;;;;;;9.23;8.30;;;14.70;46.10;;;;;;4987403;28;20524;-72
2021/04/13 10:51:29;;;;;;;8.83;8.03;;;14.50;46.70;;;;;;4988789;28;20459;-71
2021/04/13 10:54:24;;;;;;;9.00;8.07;;;14.60;45.80;;;;;;4983769;28;21020;-71
2021/04/13 10:56:58;;;;;;;7.83;7.10;;;15.00;46.40;;;;;;4990371;28;20487;-71
2021/04/13 10:59:54;;;;;;;12.53;10.27;;;15.90;45.70;;;;;;4988780;28;20855;-70
2021/04/13 11:02:54;;;;;;;12.20;11.00;;;17.70;45.80;;;;;;4990121;28;20846;-69
2021/04/13 11:05:43;;;;;;;11.77;8.30;;;17.50;44.60;;;;;;4985279;28;20535;-71
2021/04/13 11:08:29;;;;;;;8.77;8.03;;;18.50;42.90;;;;;;4977792;28;20467;-71
2021/04/13 11:11:13;;;;;;;9.10;8.13;;;19.70;41.00;;;;;;4995680;28;20479;-71
2021/04/13 11:14:00;;;;;;;8.97;8.23;;;19.20;41.00;;;;;;4999634;28;20471;-69
2021/04/13 11:17:14;;;;;;;8.40;7.70;;;18.90;40.80;;;;;;4993165;28;20501;-72
2021/04/13 11:20:15;;;;;;;8.27;7.47;;;22.50;40.00;;;;;;4954792;28;20449;-71
2021/04/13 11:22:59;;;;;;;8.80;8.10;;;26.20;35.80;;;;;;4992648;28;21000;-73
2021/04/13 11:25:45;;;;;;;8.90;8.20;;;27.20;31.70;;;;;;4995019;28;20436;-72
2021/04/13 11:28:17;;;;;;;9.03;8.30;;;28.60;31.40;;;;;;5002183;28;20463;-72
2021/04/13 11:30:51;;;;;;;8.50;7.80;;;29.30;28.80;;;;;;4995484;28;20464;-73
2021/04/13 11:33:39;;;;;;;9.23;8.50;;;29.90;28.10;;;;;;4998312;28;20459;-72
2021/04/13 11:36:26;;;;;;;9.43;8.43;;;27.60;27.00;;;;;;4993786;28;20447;-71
2021/04/13 11:39:16;;;;;;;8.43;7.63;;;27.50;28.30;;;;;;4991564;28;20987;-73
2021/04/13 11:42:09;;;;;;;8.50;7.80;;;29.70;28.00;;;;;;4993749;28;20438;-73
2021/04/13 11:45:06;;;;;;;12.20;11.00;;;32.40;26.30;;;;;;4996146;28;20459;-70
2021/04/13 11:47:53;;;;;;;11.57;10.60;;;33.40;24.80;;;;;;4993809;28;21226;-71
2021/04/13 11:50:37;;;;;;;8.23;7.53;;;34.00;23.70;;;;;;4991985;28;20439;-72
2021/04/13 11:53:06;;;;;;;8.00;7.40;;;33.20;23.70;;;;;;4981645;28;20456;-71
2021/04/13 11:55:42;;;;;;;8.37;7.67;;;30.50;23.10;;;;;;4991529;28;20441;-72
2021/04/13 11:58:21;;;;;;;8.77;7.40;;;27.30;24.40;;;;;;4997129;28;20428;-71
2021/04/13 12:01:22;;;;;;;8.20;7.50;;;24.20;25.40;;;;;;4992597;28;20452;-71
2021/04/13 12:04:08;;;;;;;8.40;7.67;;;22.20;27.40;;;;;;4983070;28;20540;-72
2021/04/13 12:06:54;;;;;;;7.33;6.80;;;23.60;28.70;;;;;;4983118;28;20460;-73
2021/04/13 12:09:59;;;;;;;8.20;7.60;;;24.40;27.30;;;;;;4993980;28;20475;-73
2021/04/13 12:12:31;;;;;;;8.50;7.80;;;24.20;27.10;;;;;;4995769;28;20435;-71
2021/04/13 12:14:58;;;;;;;9.07;8.13;;;23.60;26.90;;;;;;4989983;28;20566;-72
2021/04/13 12:17:40;;;;;;;9.07;8.17;;;21.60;27.50;;;;;;4976959;28;20472;-71
2021/04/13 12:20:24;;;;;;;8.57;7.77;;;19.60;28.60;;;;;;4995883;28;20538;-71
2021/04/13 12:22:54;;;;;;;8.93;8.13;;;17.90;29.80;;;;;;4997716;28;20476;-72
2021/04/13 12:25:37;;;;;;;8.47;7.67;;;16.70;30.40;;;;;;4992279;28;21288;-69
2021/04/13 12:28:15;;;;;;;9.00;8.20;;;17.50;31.70;;;;;;4985011;28;21331;-71
2021/04/13 12:30:41;;;;;;;7.63;6.93;;;19.20;31.10;;;;;;4995817;28;21012;-72
2021/04/13 12:33:25;;;;;;;7.67;7.00;;;22.00;30.80;;;;;;4995551;28;20435;-72
2021/04/13 12:35:59;;;;;;;8.10;7.30;;;23.50;28.60;;;;;;4995922;28;20265;-73
2021/04/13 12:38:51;;;;;;;8.23;7.63;;;24.30;27.70;;;;;;4995036;28;20444;-72
2021/04/13 12:41:34;;;;;;;9.13;8.33;;;25.60;27.30;;;;;;4990753;28;20528;-71
2021/04/13 12:44:13;;;;;;;7.70;7.10;;;26.60;26.70;;;;;;4991204;28;20989;-72
2021/04/13 12:46:41;;;;;;;8.93;7.93;;;25.30;25.80;;;;;;4996026;28;20942;-72
2021/04/13 12:49:12;;;;;;;8.90;8.00;;;22.60;26.50;;;;;;4987530;28;20558;-70
2021/04/13 12:52:07;;;;;;;7.60;7.00;;;20.60;27.50;;;;;;4989185;28;20468;-71
2021/04/13 12:54:39;;;;;;;7.53;6.93;;;18.90;28.20;;;;;;4990266;28;20484;-71
2021/04/13 12:57:20;;;;;;;7.43;6.83;;;17.80;29.40;;;;;;4993611;28;20441;-69
2021/04/13 12:59:47;;;;;;;11.00;7.90;;;17.50;30.00;;;;;;5000894;28;20446;-71
2021/04/13 13:02:31;;;;;;;7.67;6.97;;;18.60;30.10;;;;;;4997187;28;20474;-70
2021/04/13 13:04:57;;;;;;;7.87;7.20;;;19.80;29.30;;;;;;4996227;28;20465;-71
2021/04/13 13:07:26;;;;;;;8.43;7.70;;;20.70;28.80;;;;;;4998983;28;20428;-71
2021/04/13 13:09:52;;;;;;;7.60;7.00;;;22.50;28.10;;;;;;4998777;28;20424;-71
2021/04/13 13:12:22;;;;;;;9.33;7.70;;;23.30;27.80;;;;;;4991624;28;20961;-71
2021/04/13 13:14:59;;;;;;;8.07;7.37;;;23.40;26.60;;;;;;4979064;28;20473;-72
2021/04/13 13:17:31;;;;;;;7.87;7.17;;;21.40;26.10;;;;;;4999142;28;20565;-71
2021/04/13 13:19:57;;;;;;;8.33;7.63;;;19.70;27.30;;;;;;4997597;28;20447;-70
2021/04/13 13:22:24;;;;;;;7.83;7.17;;;18.90;28.50;;;;;;4999136;28;20791;-72
2021/04/13 13:24:51;;;;;;;7.50;6.83;;;20.30;28.10;;;;;;4989661;28;20205;-70
2021/04/13 13:27:32;;;;;;;7.00;6.40;;;21.20;29.40;;;;;;5000722;28;20452;-71
2021/04/13 13:30:08;;;;;;;7.00;6.50;;;20.70;27.70;;;;;;4996141;28;20526;-72
2021/04/13 13:32:35;;;;;;;7.07;5.80;;;20.20;26.90;;;;;;4995625;28;20444;-71
2021/04/13 13:35:03;;;;;;;8.23;7.43;;;19.70;29.10;;;;;;4998105;28;20464;-70
2021/04/13 13:37:39;;;;;;;6.80;6.20;;;21.80;28.40;;;;;;4980828;28;21048;-72
2021/04/13 13:40:15;;;;;;;7.20;6.60;;;22.50;26.90;;;;;;4997976;28;20454;-71
2021/04/13 13:42:42;;;;;;;7.00;6.40;;;22.70;27.30;;;;;;4995193;28;20543;-73
2021/04/13 13:45:27;;;;;;;6.40;5.97;;;23.60;26.00;;;;;;5000003;28;20452;-70
2021/04/13 13:47:53;;;;;;;7.47;6.80;;;23.30;26.30;;;;;;4987538;28;20440;-70